sensor_id;sensor_type;location;lat;lon;timestamp;P1;durP1;ratioP1;P2;durP2;ratioP2
58260;SDS011;44058;52.898;6.502;2023-04-15T00:01:29;8.13;;;4.00;;
58260;SDS011;44058;52.898;6.502;2023-04-15T00:03:58;4.63;;;3.00;;
58260;SDS011;44058;52.898;6.502;2023-04-15T00:06:24;6.90;;;2.85;;
58260;SDS011;44058;52.898;6.502;2023-04-15T00:08:50;6.70;;;3.63;;
58260;SDS011;44058;52.898;6.502;2023-04-15T00:11:16;6.60;;;3.13;;
58260;SDS011;44058;52.898;6.502;2023-04-15T00:13:43;5.25;;;2.97;;
58260;SDS011;44058;52.898;6.502;2023-04-15T00:16:10;6.78;;;3.25;;
58260;SDS011;44058;52.898;6.502;2023-04-15T00:18:36;6.05;;;3.47;;
58260;SDS011;44058;52.898;6.502;2023-04-15T00:21:03;8.25;;;3.40;;
58260;SDS011;44058;52.898;6.502;2023-04-15T00:23:29;7.32;;;3.22;;
58260;SDS011;44058;52.898;6.502;2023-04-15T00:25:56;4.88;;;3.35;;
58260;SDS011;44058;52.898;6.502;2023-04-15T00:28:22;5.35;;;3.53;;
58260;SDS011;44058;52.898;6.502;2023-04-15T00:30:48;4.28;;;2.85;;
58260;SDS011;44058;52.898;6.502;2023-04-15T00:33:15;7.05;;;3.40;;
58260;SDS011;44058;52.898;6.502;2023-04-15T00:35:41;8.80;;;3.30;;
58260;SDS011;44058;52.898;6.502;2023-04-15T00:38:08;4.57;;;3.03;;
58260;SDS011;44058;52.898;6.502;2023-04-15T00:40:34;6.32;;;3.30;;
58260;SDS011;44058;52.898;6.502;2023-04-15T00:43:00;5.10;;;3.53;;
58260;SDS011;44058;52.898;6.502;2023-04-15T00:45:26;5.53;;;3.30;;
58260;SDS011;44058;52.898;6.502;2023-04-15T00:47:53;7.72;;;4.00;;
58260;SDS011;44058;52.898;6.502;2023-04-15T00:50:19;6.95;;;3.83;;
58260;SDS011;44058;52.898;6.502;2023-04-15T00:52:46;6.07;;;3.47;;
58260;SDS011;44058;52.898;6.502;2023-04-15T00:55:12;6.47;;;3.67;;
58260;SDS011;44058;52.898;6.502;2023-04-15T00:57:39;6.18;;;3.67;;
58260;SDS011;44058;52.898;6.502;2023-04-15T01:00:06;6.10;;;4.15;;
58260;SDS011;44058;52.898;6.502;2023-04-15T01:02:34;6.05;;;3.78;;
58260;SDS011;44058;52.898;6.502;2023-04-15T01:05:00;7.22;;;4.43;;
58260;SDS011;44058;52.898;6.502;2023-04-15T01:07:28;6.63;;;3.55;;
58260;SDS011;44058;52.898;6.502;2023-04-15T01:09:54;7.80;;;3.95;;
58260;SDS011;44058;52.898;6.502;2023-04-15T01:12:20;6.13;;;3.70;;
58260;SDS011;44058;52.898;6.502;2023-04-15T01:14:47;7.45;;;4.30;;
58260;SDS011;44058;52.898;6.502;2023-04-15T01:17:13;4.88;;;3.72;;
58260;SDS011;44058;52.898;6.502;2023-04-15T01:19:39;10.60;;;4.47;;
58260;SDS011;44058;52.898;6.502;2023-04-15T01:22:05;6.32;;;4.20;;
58260;SDS011;44058;52.898;6.502;2023-04-15T01:24:31;6.55;;;3.67;;
58260;SDS011;44058;52.898;6.502;2023-04-15T01:26:58;7.20;;;3.38;;
58260;SDS011;44058;52.898;6.502;2023-04-15T01:29:24;7.65;;;3.95;;
58260;SDS011;44058;52.898;6.502;2023-04-15T01:31:51;5.07;;;3.70;;
58260;SDS011;44058;52.898;6.502;2023-04-15T01:34:18;6.57;;;4.03;;
58260;SDS011;44058;52.898;6.502;2023-04-15T01:36:45;7.07;;;3.90;;
58260;SDS011;44058;52.898;6.502;2023-04-15T01:39:11;6.30;;;4.07;;
58260;SDS011;44058;52.898;6.502;2023-04-15T01:41:37;5.15;;;4.03;;
58260;SDS011;44058;52.898;6.502;2023-04-15T01:44:05;8.75;;;4.57;;
58260;SDS011;44058;52.898;6.502;2023-04-15T01:46:32;6.88;;;4.38;;
58260;SDS011;44058;52.898;6.502;2023-04-15T01:48:58;7.88;;;4.53;;
58260;SDS011;44058;52.898;6.502;2023-04-15T01:51:24;7.65;;;4.25;;
58260;SDS011;44058;52.898;6.502;2023-04-15T01:53:52;5.75;;;4.55;;
58260;SDS011;44058;52.898;6.502;2023-04-15T01:56:21;6.47;;;4.47;;
58260;SDS011;44058;52.898;6.502;2023-04-15T01:58:48;7.72;;;5.03;;
58260;SDS011;44058;52.898;6.502;2023-04-15T02:01:14;7.03;;;4.18;;
58260;SDS011;44058;52.898;6.502;2023-04-15T02:03:43;6.57;;;4.30;;
58260;SDS011;44058;52.898;6.502;2023-04-15T02:06:09;8.00;;;4.65;;
58260;SDS011;44058;52.898;6.502;2023-04-15T02:08:36;9.75;;;4.88;;
58260;SDS011;44058;52.898;6.502;2023-04-15T02:11:02;6.97;;;4.50;;
58260;SDS011;44058;52.898;6.502;2023-04-15T02:13:28;8.18;;;4.82;;
58260;SDS011;44058;52.898;6.502;2023-04-15T02:15:55;7.55;;;4.95;;
58260;SDS011;44058;52.898;6.502;2023-04-15T02:18:21;8.18;;;5.20;;
58260;SDS011;44058;52.898;6.502;2023-04-15T02:20:47;7.20;;;5.68;;
58260;SDS011;44058;52.898;6.502;2023-04-15T02:23:16;8.37;;;5.37;;
58260;SDS011;44058;52.898;6.502;2023-04-15T02:25:42;9.90;;;5.63;;
58260;SDS011;44058;52.898;6.502;2023-04-15T02:28:08;6.40;;;5.13;;
58260;SDS011;44058;52.898;6.502;2023-04-15T02:30:34;9.88;;;5.72;;
58260;SDS011;44058;52.898;6.502;2023-04-15T02:33:00;7.53;;;5.22;;
58260;SDS011;44058;52.898;6.502;2023-04-15T02:35:27;7.55;;;5.68;;
58260;SDS011;44058;52.898;6.502;2023-04-15T02:37:53;9.63;;;5.70;;
58260;SDS011;44058;52.898;6.502;2023-04-15T02:40:19;6.93;;;5.55;;
58260;SDS011;44058;52.898;6.502;2023-04-15T02:42:45;7.20;;;5.40;;
58260;SDS011;44058;52.898;6.502;2023-04-15T02:45:11;10.63;;;5.68;;
58260;SDS011;44058;52.898;6.502;2023-04-15T02:47:38;8.48;;;5.85;;
58260;SDS011;44058;52.898;6.502;2023-04-15T02:50:09;8.57;;;5.95;;
58260;SDS011;44058;52.898;6.502;2023-04-15T02:52:37;9.98;;;5.80;;
58260;SDS011;44058;52.898;6.502;2023-04-15T02:55:05;9.85;;;6.65;;
58260;SDS011;44058;52.898;6.502;2023-04-15T02:57:31;9.45;;;6.05;;
58260;SDS011;44058;52.898;6.502;2023-04-15T02:59:57;9.73;;;5.60;;
58260;SDS011;44058;52.898;6.502;2023-04-15T03:02:23;7.90;;;6.00;;
58260;SDS011;44058;52.898;6.502;2023-04-15T03:04:49;8.48;;;6.15;;
58260;SDS011;44058;52.898;6.502;2023-04-15T03:07:16;8.85;;;5.93;;
58260;SDS011;44058;52.898;6.502;2023-04-15T03:09:42;9.20;;;6.28;;
58260;SDS011;44058;52.898;6.502;2023-04-15T03:12:08;8.15;;;5.97;;
58260;SDS011;44058;52.898;6.502;2023-04-15T03:14:34;9.80;;;6.07;;
58260;SDS011;44058;52.898;6.502;2023-04-15T03:17:00;8.35;;;5.97;;
58260;SDS011;44058;52.898;6.502;2023-04-15T03:19:27;9.48;;;6.50;;
58260;SDS011;44058;52.898;6.502;2023-04-15T03:21:53;7.85;;;6.10;;
58260;SDS011;44058;52.898;6.502;2023-04-15T03:24:19;7.18;;;6.25;;
58260;SDS011;44058;52.898;6.502;2023-04-15T03:26:45;7.75;;;6.25;;
58260;SDS011;44058;52.898;6.502;2023-04-15T03:29:11;11.55;;;6.55;;
58260;SDS011;44058;52.898;6.502;2023-04-15T03:31:37;6.72;;;6.00;;
58260;SDS011;44058;52.898;6.502;2023-04-15T03:34:03;6.93;;;6.13;;
58260;SDS011;44058;52.898;6.502;2023-04-15T03:36:29;7.28;;;5.53;;
58260;SDS011;44058;52.898;6.502;2023-04-15T03:38:57;10.13;;;6.35;;
58260;SDS011;44058;52.898;6.502;2023-04-15T03:41:23;9.90;;;6.00;;
58260;SDS011;44058;52.898;6.502;2023-04-15T03:43:50;7.30;;;6.00;;
58260;SDS011;44058;52.898;6.502;2023-04-15T03:46:17;9.43;;;6.20;;
58260;SDS011;44058;52.898;6.502;2023-04-15T03:48:43;9.10;;;6.28;;
58260;SDS011;44058;52.898;6.502;2023-04-15T03:51:09;8.35;;;6.20;;
58260;SDS011;44058;52.898;6.502;2023-04-15T03:53:35;9.00;;;6.10;;
58260;SDS011;44058;52.898;6.502;2023-04-15T03:56:02;8.50;;;6.40;;
58260;SDS011;44058;52.898;6.502;2023-04-15T03:58:28;9.38;;;7.03;;
58260;SDS011;44058;52.898;6.502;2023-04-15T04:00:54;9.82;;;6.93;;
58260;SDS011;44058;52.898;6.502;2023-04-15T04:03:21;10.65;;;6.60;;
58260;SDS011;44058;52.898;6.502;2023-04-15T04:05:47;9.15;;;6.05;;
58260;SDS011;44058;52.898;6.502;2023-04-15T04:08:13;8.60;;;7.00;;
58260;SDS011;44058;52.898;6.502;2023-04-15T04:10:40;8.18;;;6.40;;
58260;SDS011;44058;52.898;6.502;2023-04-15T04:13:06;10.55;;;7.15;;
58260;SDS011;44058;52.898;6.502;2023-04-15T04:15:32;7.80;;;6.78;;
58260;SDS011;44058;52.898;6.502;2023-04-15T04:17:59;9.00;;;7.10;;
58260;SDS011;44058;52.898;6.502;2023-04-15T04:20:25;10.18;;;6.78;;
58260;SDS011;44058;52.898;6.502;2023-04-15T04:22:51;10.68;;;6.38;;
58260;SDS011;44058;52.898;6.502;2023-04-15T04:25:17;11.48;;;7.85;;
58260;SDS011;44058;52.898;6.502;2023-04-15T04:27:43;9.77;;;6.63;;
58260;SDS011;44058;52.898;6.502;2023-04-15T04:30:09;7.50;;;6.47;;
58260;SDS011;44058;52.898;6.502;2023-04-15T04:32:36;7.47;;;6.20;;
58260;SDS011;44058;52.898;6.502;2023-04-15T04:35:03;8.80;;;6.55;;
58260;SDS011;44058;52.898;6.502;2023-04-15T04:37:29;9.32;;;6.40;;
58260;SDS011;44058;52.898;6.502;2023-04-15T04:39:55;9.07;;;6.57;;
58260;SDS011;44058;52.898;6.502;2023-04-15T04:42:21;11.93;;;7.25;;
58260;SDS011;44058;52.898;6.502;2023-04-15T04:44:47;10.13;;;7.05;;
58260;SDS011;44058;52.898;6.502;2023-04-15T04:47:19;8.98;;;7.00;;
58260;SDS011;44058;52.898;6.502;2023-04-15T04:49:46;9.10;;;6.57;;
58260;SDS011;44058;52.898;6.502;2023-04-15T04:52:14;8.73;;;6.97;;
58260;SDS011;44058;52.898;6.502;2023-04-15T04:54:40;9.77;;;6.88;;
58260;SDS011;44058;52.898;6.502;2023-04-15T04:57:07;11.95;;;7.97;;
58260;SDS011;44058;52.898;6.502;2023-04-15T04:59:33;9.05;;;7.13;;
58260;SDS011;44058;52.898;6.502;2023-04-15T05:01:59;10.18;;;7.80;;
58260;SDS011;44058;52.898;6.502;2023-04-15T05:04:25;10.52;;;7.88;;
58260;SDS011;44058;52.898;6.502;2023-04-15T05:06:52;10.93;;;7.68;;
58260;SDS011;44058;52.898;6.502;2023-04-15T05:09:18;12.15;;;8.38;;
58260;SDS011;44058;52.898;6.502;2023-04-15T05:11:44;9.55;;;8.02;;
58260;SDS011;44058;52.898;6.502;2023-04-15T05:14:10;10.40;;;7.85;;
58260;SDS011;44058;52.898;6.502;2023-04-15T05:16:36;14.38;;;8.65;;
58260;SDS011;44058;52.898;6.502;2023-04-15T05:19:02;11.43;;;8.65;;
58260;SDS011;44058;52.898;6.502;2023-04-15T05:21:28;10.15;;;8.32;;
58260;SDS011;44058;52.898;6.502;2023-04-15T05:23:55;13.50;;;9.13;;
58260;SDS011;44058;52.898;6.502;2023-04-15T05:26:21;11.15;;;8.20;;
58260;SDS011;44058;52.898;6.502;2023-04-15T05:28:48;10.55;;;8.13;;
58260;SDS011;44058;52.898;6.502;2023-04-15T05:31:14;10.48;;;8.02;;
58260;SDS011;44058;52.898;6.502;2023-04-15T05:33:40;12.13;;;8.38;;
58260;SDS011;44058;52.898;6.502;2023-04-15T05:36:07;11.05;;;8.68;;
58260;SDS011;44058;52.898;6.502;2023-04-15T05:38:33;12.30;;;8.98;;
58260;SDS011;44058;52.898;6.502;2023-04-15T05:40:59;13.98;;;10.52;;
58260;SDS011;44058;52.898;6.502;2023-04-15T05:43:25;11.45;;;8.85;;
58260;SDS011;44058;52.898;6.502;2023-04-15T05:45:51;13.52;;;9.80;;
58260;SDS011;44058;52.898;6.502;2023-04-15T05:48:18;16.10;;;10.23;;
58260;SDS011;44058;52.898;6.502;2023-04-15T05:50:44;13.77;;;10.15;;
58260;SDS011;44058;52.898;6.502;2023-04-15T05:53:10;13.00;;;10.10;;
58260;SDS011;44058;52.898;6.502;2023-04-15T05:55:36;12.52;;;9.93;;
58260;SDS011;44058;52.898;6.502;2023-04-15T05:58:03;12.63;;;9.75;;
58260;SDS011;44058;52.898;6.502;2023-04-15T06:00:29;13.70;;;9.68;;
58260;SDS011;44058;52.898;6.502;2023-04-15T06:02:56;14.23;;;10.27;;
58260;SDS011;44058;52.898;6.502;2023-04-15T06:05:23;12.80;;;9.90;;
58260;SDS011;44058;52.898;6.502;2023-04-15T06:07:49;11.45;;;9.35;;
58260;SDS011;44058;52.898;6.502;2023-04-15T06:10:15;14.98;;;9.13;;
58260;SDS011;44058;52.898;6.502;2023-04-15T06:12:41;12.35;;;9.40;;
58260;SDS011;44058;52.898;6.502;2023-04-15T06:15:07;12.80;;;9.43;;
58260;SDS011;44058;52.898;6.502;2023-04-15T06:17:34;11.32;;;8.98;;
58260;SDS011;44058;52.898;6.502;2023-04-15T06:20:01;14.07;;;10.00;;
58260;SDS011;44058;52.898;6.502;2023-04-15T06:22:27;11.90;;;9.15;;
58260;SDS011;44058;52.898;6.502;2023-04-15T06:24:53;13.45;;;9.40;;
58260;SDS011;44058;52.898;6.502;2023-04-15T06:27:20;14.48;;;10.05;;
58260;SDS011;44058;52.898;6.502;2023-04-15T06:29:47;14.25;;;9.80;;
58260;SDS011;44058;52.898;6.502;2023-04-15T06:32:13;12.77;;;9.45;;
58260;SDS011;44058;52.898;6.502;2023-04-15T06:34:39;12.25;;;9.52;;
58260;SDS011;44058;52.898;6.502;2023-04-15T06:37:05;14.45;;;9.70;;
58260;SDS011;44058;52.898;6.502;2023-04-15T06:39:31;12.50;;;9.93;;
58260;SDS011;44058;52.898;6.502;2023-04-15T06:41:57;13.07;;;10.07;;
58260;SDS011;44058;52.898;6.502;2023-04-15T06:44:23;12.48;;;9.77;;
58260;SDS011;44058;52.898;6.502;2023-04-15T06:46:50;11.95;;;8.98;;
58260;SDS011;44058;52.898;6.502;2023-04-15T06:49:16;13.32;;;9.40;;
58260;SDS011;44058;52.898;6.502;2023-04-15T06:51:42;11.40;;;9.13;;
58260;SDS011;44058;52.898;6.502;2023-04-15T06:54:08;13.55;;;9.45;;
58260;SDS011;44058;52.898;6.502;2023-04-15T06:56:34;14.98;;;9.45;;
58260;SDS011;44058;52.898;6.502;2023-04-15T06:59:01;13.70;;;10.00;;
58260;SDS011;44058;52.898;6.502;2023-04-15T07:01:27;14.77;;;10.32;;
58260;SDS011;44058;52.898;6.502;2023-04-15T07:03:53;13.50;;;9.50;;
58260;SDS011;44058;52.898;6.502;2023-04-15T07:06:19;12.50;;;9.63;;
58260;SDS011;44058;52.898;6.502;2023-04-15T07:08:46;11.25;;;8.57;;
58260;SDS011;44058;52.898;6.502;2023-04-15T07:11:12;11.07;;;8.68;;
58260;SDS011;44058;52.898;6.502;2023-04-15T07:13:39;10.25;;;8.32;;
58260;SDS011;44058;52.898;6.502;2023-04-15T07:16:05;14.15;;;8.50;;
58260;SDS011;44058;52.898;6.502;2023-04-15T07:18:31;11.98;;;8.95;;
58260;SDS011;44058;52.898;6.502;2023-04-15T07:20:57;10.32;;;7.90;;
58260;SDS011;44058;52.898;6.502;2023-04-15T07:23:23;9.95;;;7.38;;
58260;SDS011;44058;52.898;6.502;2023-04-15T07:25:49;11.32;;;7.85;;
58260;SDS011;44058;52.898;6.502;2023-04-15T07:28:16;9.60;;;7.80;;
58260;SDS011;44058;52.898;6.502;2023-04-15T07:30:42;11.32;;;7.82;;
58260;SDS011;44058;52.898;6.502;2023-04-15T07:33:08;12.63;;;8.20;;
58260;SDS011;44058;52.898;6.502;2023-04-15T07:35:34;10.57;;;7.75;;
58260;SDS011;44058;52.898;6.502;2023-04-15T07:38:01;11.77;;;8.40;;
58260;SDS011;44058;52.898;6.502;2023-04-15T07:40:27;9.93;;;7.40;;
58260;SDS011;44058;52.898;6.502;2023-04-15T07:42:54;9.95;;;7.72;;
58260;SDS011;44058;52.898;6.502;2023-04-15T07:47:48;10.93;;;8.18;;
58260;SDS011;44058;52.898;6.502;2023-04-15T07:50:17;9.18;;;7.85;;
58260;SDS011;44058;52.898;6.502;2023-04-15T07:52:43;11.35;;;7.57;;
58260;SDS011;44058;52.898;6.502;2023-04-15T07:55:10;10.30;;;7.38;;
58260;SDS011;44058;52.898;6.502;2023-04-15T07:57:36;10.38;;;6.82;;
58260;SDS011;44058;52.898;6.502;2023-04-15T08:00:03;8.18;;;6.53;;
58260;SDS011;44058;52.898;6.502;2023-04-15T08:02:31;9.03;;;6.70;;
58260;SDS011;44058;52.898;6.502;2023-04-15T08:04:58;8.50;;;5.70;;
58260;SDS011;44058;52.898;6.502;2023-04-15T08:07:25;7.85;;;6.25;;
58260;SDS011;44058;52.898;6.502;2023-04-15T08:09:51;8.25;;;5.18;;
58260;SDS011;44058;52.898;6.502;2023-04-15T08:12:17;7.68;;;5.43;;
58260;SDS011;44058;52.898;6.502;2023-04-15T08:14:43;7.50;;;5.30;;
58260;SDS011;44058;52.898;6.502;2023-04-15T08:17:10;6.78;;;5.03;;
58260;SDS011;44058;52.898;6.502;2023-04-15T08:19:36;6.38;;;4.55;;
58260;SDS011;44058;52.898;6.502;2023-04-15T08:22:02;6.50;;;4.43;;
58260;SDS011;44058;52.898;6.502;2023-04-15T08:24:28;6.50;;;4.65;;
58260;SDS011;44058;52.898;6.502;2023-04-15T08:26:55;5.55;;;3.75;;
58260;SDS011;44058;52.898;6.502;2023-04-15T08:29:21;5.70;;;4.07;;
58260;SDS011;44058;52.898;6.502;2023-04-15T08:31:48;6.40;;;4.35;;
58260;SDS011;44058;52.898;6.502;2023-04-15T08:34:14;4.00;;;3.58;;
58260;SDS011;44058;52.898;6.502;2023-04-15T08:36:41;5.03;;;3.80;;
58260;SDS011;44058;52.898;6.502;2023-04-15T08:39:07;5.65;;;4.05;;
58260;SDS011;44058;52.898;6.502;2023-04-15T08:41:37;5.32;;;3.80;;
58260;SDS011;44058;52.898;6.502;2023-04-15T08:44:04;5.45;;;4.15;;
58260;SDS011;44058;52.898;6.502;2023-04-15T08:46:31;5.68;;;4.50;;
58260;SDS011;44058;52.898;6.502;2023-04-15T08:49:02;6.70;;;4.45;;
58260;SDS011;44058;52.898;6.502;2023-04-15T08:51:28;8.05;;;4.45;;
58260;SDS011;44058;52.898;6.502;2023-04-15T08:53:55;8.15;;;4.90;;
58260;SDS011;44058;52.898;6.502;2023-04-15T08:56:24;5.97;;;4.28;;
58260;SDS011;44058;52.898;6.502;2023-04-15T08:58:51;7.03;;;4.80;;
58260;SDS011;44058;52.898;6.502;2023-04-15T09:01:18;7.95;;;4.35;;
58260;SDS011;44058;52.898;6.502;2023-04-15T09:03:46;6.72;;;4.38;;
58260;SDS011;44058;52.898;6.502;2023-04-15T09:06:13;6.93;;;4.25;;
58260;SDS011;44058;52.898;6.502;2023-04-15T09:08:41;6.80;;;4.30;;
58260;SDS011;44058;52.898;6.502;2023-04-15T09:11:07;5.25;;;4.28;;
58260;SDS011;44058;52.898;6.502;2023-04-15T09:13:33;6.03;;;3.88;;
58260;SDS011;44058;52.898;6.502;2023-04-15T09:16:02;6.03;;;4.35;;
58260;SDS011;44058;52.898;6.502;2023-04-15T09:18:31;5.22;;;4.00;;
58260;SDS011;44058;52.898;6.502;2023-04-15T09:21:07;7.50;;;4.60;;
58260;SDS011;44058;52.898;6.502;2023-04-15T09:23:35;6.13;;;4.10;;
58260;SDS011;44058;52.898;6.502;2023-04-15T09:26:01;6.13;;;3.83;;
58260;SDS011;44058;52.898;6.502;2023-04-15T09:28:28;4.55;;;3.13;;
58260;SDS011;44058;52.898;6.502;2023-04-15T09:30:57;4.55;;;3.00;;
58260;SDS011;44058;52.898;6.502;2023-04-15T09:33:24;4.90;;;3.17;;
58260;SDS011;44058;52.898;6.502;2023-04-15T09:38:26;5.28;;;3.08;;
58260;SDS011;44058;52.898;6.502;2023-04-15T09:40:53;5.05;;;2.55;;
58260;SDS011;44058;52.898;6.502;2023-04-15T09:43:19;3.90;;;2.63;;
58260;SDS011;44058;52.898;6.502;2023-04-15T09:45:49;2.55;;;1.90;;
58260;SDS011;44058;52.898;6.502;2023-04-15T09:48:18;4.18;;;2.08;;
58260;SDS011;44058;52.898;6.502;2023-04-15T09:50:46;4.45;;;2.00;;
58260;SDS011;44058;52.898;6.502;2023-04-15T09:53:17;3.97;;;2.03;;
58260;SDS011;44058;52.898;6.502;2023-04-15T09:55:50;2.95;;;1.90;;
58260;SDS011;44058;52.898;6.502;2023-04-15T09:58:17;5.32;;;2.15;;
58260;SDS011;44058;52.898;6.502;2023-04-15T10:00:43;6.10;;;2.72;;
58260;SDS011;44058;52.898;6.502;2023-04-15T10:03:12;4.40;;;1.92;;
58260;SDS011;44058;52.898;6.502;2023-04-15T10:05:39;3.63;;;1.98;;
58260;SDS011;44058;52.898;6.502;2023-04-15T10:08:06;3.40;;;1.90;;
58260;SDS011;44058;52.898;6.502;2023-04-15T10:10:32;3.50;;;2.10;;
58260;SDS011;44058;52.898;6.502;2023-04-15T10:12:58;3.83;;;2.00;;
58260;SDS011;44058;52.898;6.502;2023-04-15T10:15:25;2.53;;;1.73;;
58260;SDS011;44058;52.898;6.502;2023-04-15T10:17:53;3.65;;;1.92;;
58260;SDS011;44058;52.898;6.502;2023-04-15T10:20:21;2.25;;;1.30;;
58260;SDS011;44058;52.898;6.502;2023-04-15T10:22:47;5.63;;;1.83;;
58260;SDS011;44058;52.898;6.502;2023-04-15T10:25:14;1.88;;;1.50;;
58260;SDS011;44058;52.898;6.502;2023-04-15T10:27:40;3.60;;;2.03;;
58260;SDS011;44058;52.898;6.502;2023-04-15T10:30:07;3.03;;;1.65;;
58260;SDS011;44058;52.898;6.502;2023-04-15T10:32:33;2.65;;;1.48;;
58260;SDS011;44058;52.898;6.502;2023-04-15T10:35:00;1.80;;;1.70;;
58260;SDS011;44058;52.898;6.502;2023-04-15T10:37:33;2.33;;;1.60;;
58260;SDS011;44058;52.898;6.502;2023-04-15T10:40:00;2.45;;;1.70;;
58260;SDS011;44058;52.898;6.502;2023-04-15T10:42:32;2.05;;;1.77;;
58260;SDS011;44058;52.898;6.502;2023-04-15T10:44:59;3.25;;;1.77;;
58260;SDS011;44058;52.898;6.502;2023-04-15T10:47:25;2.35;;;1.60;;
58260;SDS011;44058;52.898;6.502;2023-04-15T10:49:54;3.58;;;1.50;;
58260;SDS011;44058;52.898;6.502;2023-04-15T10:52:23;2.08;;;1.45;;
58260;SDS011;44058;52.898;6.502;2023-04-15T10:54:49;2.35;;;1.50;;
58260;SDS011;44058;52.898;6.502;2023-04-15T10:57:27;3.67;;;1.73;;
58260;SDS011;44058;52.898;6.502;2023-04-15T11:00:09;3.40;;;1.70;;
58260;SDS011;44058;52.898;6.502;2023-04-15T11:02:45;3.08;;;1.60;;
58260;SDS011;44058;52.898;6.502;2023-04-15T11:05:16;2.00;;;1.20;;
58260;SDS011;44058;52.898;6.502;2023-04-15T11:12:39;2.17;;;1.25;;
58260;SDS011;44058;52.898;6.502;2023-04-15T11:17:51;2.53;;;1.40;;
58260;SDS011;44058;52.898;6.502;2023-04-15T11:20:17;2.13;;;1.23;;
58260;SDS011;44058;52.898;6.502;2023-04-15T11:22:47;2.97;;;1.30;;
58260;SDS011;44058;52.898;6.502;2023-04-15T11:25:22;2.38;;;1.33;;
58260;SDS011;44058;52.898;6.502;2023-04-15T11:27:49;2.83;;;1.55;;
58260;SDS011;44058;52.898;6.502;2023-04-15T11:30:25;3.78;;;1.52;;
58260;SDS011;44058;52.898;6.502;2023-04-15T11:32:52;4.57;;;1.60;;
58260;SDS011;44058;52.898;6.502;2023-04-15T11:35:19;3.38;;;1.80;;
58260;SDS011;44058;52.898;6.502;2023-04-15T11:37:47;3.00;;;1.60;;
58260;SDS011;44058;52.898;6.502;2023-04-15T11:40:13;5.35;;;1.95;;
58260;SDS011;44058;52.898;6.502;2023-04-15T11:42:41;5.22;;;2.13;;
58260;SDS011;44058;52.898;6.502;2023-04-15T11:45:14;4.47;;;2.30;;
58260;SDS011;44058;52.898;6.502;2023-04-15T11:47:40;4.35;;;1.85;;
58260;SDS011;44058;52.898;6.502;2023-04-15T11:52:40;4.78;;;1.70;;
58260;SDS011;44058;52.898;6.502;2023-04-15T11:55:06;5.18;;;2.03;;
58260;SDS011;44058;52.898;6.502;2023-04-15T11:57:33;5.03;;;1.95;;
58260;SDS011;44058;52.898;6.502;2023-04-15T12:00:00;5.63;;;2.25;;
58260;SDS011;44058;52.898;6.502;2023-04-15T12:02:29;5.50;;;2.70;;
58260;SDS011;44058;52.898;6.502;2023-04-15T12:05:06;3.90;;;1.80;;
58260;SDS011;44058;52.898;6.502;2023-04-15T12:10:18;5.70;;;2.45;;
58260;SDS011;44058;52.898;6.502;2023-04-15T12:12:48;14.02;;;6.57;;
58260;SDS011;44058;52.898;6.502;2023-04-15T12:15:14;5.85;;;2.80;;
58260;SDS011;44058;52.898;6.502;2023-04-15T12:17:41;8.10;;;1.98;;
58260;SDS011;44058;52.898;6.502;2023-04-15T12:20:07;19.77;;;12.18;;
58260;SDS011;44058;52.898;6.502;2023-04-15T12:22:36;29.30;;;18.40;;
58260;SDS011;44058;52.898;6.502;2023-04-15T12:25:02;47.08;;;28.42;;
58260;SDS011;44058;52.898;6.502;2023-04-15T12:27:30;28.65;;;17.05;;
58260;SDS011;44058;52.898;6.502;2023-04-15T12:30:05;37.15;;;23.65;;
58260;SDS011;44058;52.898;6.502;2023-04-15T12:32:36;11.38;;;6.35;;
58260;SDS011;44058;52.898;6.502;2023-04-15T12:37:28;31.98;;;21.75;;
58260;SDS011;44058;52.898;6.502;2023-04-15T12:39:54;11.48;;;7.10;;
58260;SDS011;44058;52.898;6.502;2023-04-15T12:42:20;12.77;;;8.00;;
58260;SDS011;44058;52.898;6.502;2023-04-15T12:44:46;48.63;;;25.33;;
58260;SDS011;44058;52.898;6.502;2023-04-15T12:47:12;18.90;;;13.77;;
58260;SDS011;44058;52.898;6.502;2023-04-15T12:49:38;54.65;;;36.40;;
58260;SDS011;44058;52.898;6.502;2023-04-15T12:52:05;54.20;;;41.05;;
58260;SDS011;44058;52.898;6.502;2023-04-15T12:54:31;13.65;;;9.52;;
58260;SDS011;44058;52.898;6.502;2023-04-15T12:56:57;71.53;;;64.95;;
58260;SDS011;44058;52.898;6.502;2023-04-15T12:59:24;28.48;;;26.17;;
58260;SDS011;44058;52.898;6.502;2023-04-15T13:01:50;17.48;;;15.95;;
58260;SDS011;44058;52.898;6.502;2023-04-15T13:04:17;13.00;;;10.52;;
58260;SDS011;44058;52.898;6.502;2023-04-15T13:06:44;12.32;;;11.07;;
58260;SDS011;44058;52.898;6.502;2023-04-15T13:09:11;13.20;;;11.85;;
58260;SDS011;44058;52.898;6.502;2023-04-15T13:11:37;13.65;;;10.45;;
58260;SDS011;44058;52.898;6.502;2023-04-15T13:14:04;10.05;;;9.00;;
58260;SDS011;44058;52.898;6.502;2023-04-15T13:16:31;8.15;;;4.90;;
58260;SDS011;44058;52.898;6.502;2023-04-15T13:19:00;5.00;;;2.35;;
58260;SDS011;44058;52.898;6.502;2023-04-15T13:21:27;6.00;;;2.67;;
58260;SDS011;44058;52.898;6.502;2023-04-15T13:23:53;5.10;;;1.85;;
58260;SDS011;44058;52.898;6.502;2023-04-15T13:26:20;4.05;;;2.00;;
58260;SDS011;44058;52.898;6.502;2023-04-15T13:28:46;8.30;;;2.75;;
58260;SDS011;44058;52.898;6.502;2023-04-15T13:31:12;6.43;;;2.53;;
58260;SDS011;44058;52.898;6.502;2023-04-15T13:33:38;7.85;;;4.05;;
58260;SDS011;44058;52.898;6.502;2023-04-15T13:36:04;8.98;;;5.60;;
58260;SDS011;44058;52.898;6.502;2023-04-15T13:38:31;5.53;;;3.67;;
58260;SDS011;44058;52.898;6.502;2023-04-15T13:40:57;6.18;;;2.30;;
58260;SDS011;44058;52.898;6.502;2023-04-15T13:43:23;7.35;;;1.90;;
58260;SDS011;44058;52.898;6.502;2023-04-15T13:45:49;6.05;;;1.90;;
58260;SDS011;44058;52.898;6.502;2023-04-15T13:48:15;5.43;;;2.22;;
58260;SDS011;44058;52.898;6.502;2023-04-15T13:50:41;13.35;;;8.00;;
58260;SDS011;44058;52.898;6.502;2023-04-15T13:53:10;7.82;;;6.22;;
58260;SDS011;44058;52.898;6.502;2023-04-15T13:55:36;8.07;;;4.72;;
58260;SDS011;44058;52.898;6.502;2023-04-15T13:58:05;9.85;;;5.78;;
58260;SDS011;44058;52.898;6.502;2023-04-15T14:00:32;11.45;;;9.30;;
58260;SDS011;44058;52.898;6.502;2023-04-15T14:02:58;9.23;;;6.90;;
58260;SDS011;44058;52.898;6.502;2023-04-15T14:05:24;7.38;;;3.33;;
58260;SDS011;44058;52.898;6.502;2023-04-15T14:07:50;6.00;;;2.30;;
58260;SDS011;44058;52.898;6.502;2023-04-15T14:10:17;7.30;;;2.00;;
58260;SDS011;44058;52.898;6.502;2023-04-15T14:12:43;6.88;;;1.67;;
58260;SDS011;44058;52.898;6.502;2023-04-15T14:15:09;4.15;;;2.60;;
58260;SDS011;44058;52.898;6.502;2023-04-15T14:17:35;9.25;;;6.10;;
58260;SDS011;44058;52.898;6.502;2023-04-15T14:20:01;5.78;;;2.15;;
58260;SDS011;44058;52.898;6.502;2023-04-15T14:22:27;8.63;;;6.47;;
58260;SDS011;44058;52.898;6.502;2023-04-15T14:24:53;10.00;;;7.10;;
58260;SDS011;44058;52.898;6.502;2023-04-15T14:27:19;6.32;;;3.97;;
58260;SDS011;44058;52.898;6.502;2023-04-15T14:29:46;11.90;;;7.40;;
58260;SDS011;44058;52.898;6.502;2023-04-15T14:32:12;9.02;;;6.85;;
58260;SDS011;44058;52.898;6.502;2023-04-15T14:34:38;3.10;;;2.22;;
58260;SDS011;44058;52.898;6.502;2023-04-15T14:37:05;4.35;;;1.92;;
58260;SDS011;44058;52.898;6.502;2023-04-15T14:39:31;4.68;;;2.55;;
58260;SDS011;44058;52.898;6.502;2023-04-15T14:41:57;6.15;;;3.13;;
58260;SDS011;44058;52.898;6.502;2023-04-15T14:44:23;7.75;;;6.25;;
58260;SDS011;44058;52.898;6.502;2023-04-15T14:46:50;7.22;;;4.82;;
58260;SDS011;44058;52.898;6.502;2023-04-15T14:49:16;5.70;;;3.10;;
58260;SDS011;44058;52.898;6.502;2023-04-15T14:51:42;7.57;;;3.22;;
58260;SDS011;44058;52.898;6.502;2023-04-15T14:54:08;6.70;;;5.10;;
58260;SDS011;44058;52.898;6.502;2023-04-15T14:56:34;7.57;;;2.20;;
58260;SDS011;44058;52.898;6.502;2023-04-15T14:59:00;5.00;;;2.50;;
58260;SDS011;44058;52.898;6.502;2023-04-15T15:01:26;10.00;;;6.35;;